< Typhoon 199501 1995 Season Typhoon 199503 >
Typhoon 199502 (DEANNA)
General InformationTrack Information on Google MapsDetailed Wind InformationList of All Images || Disaster Info.ResourceGoogle EarthGE AnimationAtom FeedGeoJSON
Detalied Best Track (Time Zone = UTC)
Year Month Day Hour Lat. Long. Pressure (hPa) Wind (kt) Class Image Chart
1995 6 1 00 10.2 129.5 1004 0 2 Image Chart
1995 6 1 06 10.8 128.1 1002 0 2 Image Chart
1995 6 1 12 11.2 127.3 1002 0 2 Image Chart
1995 6 1 18 11.5 126.4 1002 0 2 Image Chart
1995 6 2 00 12.0 125.0 1002 0 2 Image Chart
1995 6 2 06 12.7 123.5 1002 0 2 Image Chart
1995 6 2 12 13.3 122.3 1000 0 2 Image Chart
1995 6 2 18 13.7 121.6 1000 0 2 Image Chart
1995 6 3 00 14.1 120.6 998 35 3 Image Chart
1995 6 3 06 14.5 119.6 998 35 3 Image Chart
1995 6 3 12 15.0 119.0 996 40 3 Image Chart
1995 6 3 18 15.7 118.8 996 40 3 Image Chart
1995 6 4 00 16.6 118.8 996 40 3 Image Chart
1995 6 4 06 17.9 119.2 998 40 3 Image Chart
1995 6 4 12 18.6 119.3 998 40 3 Image Chart
1995 6 4 18 18.9 119.2 998 40 3 Image Chart
1995 6 5 00 19.1 119.1 998 40 3 Image Chart
1995 6 5 06 19.2 119.0 998 40 3 Image Chart
1995 6 5 12 19.2 119.0 998 40 3 Image Chart
1995 6 5 18 19.1 118.9 998 40 3 Image Chart
1995 6 6 00 19.0 118.8 998 40 3 Image Chart
1995 6 6 06 18.9 118.6 998 40 3 Image Chart
1995 6 6 12 18.8 118.3 998 40 3 Image Chart
1995 6 6 18 18.9 118.1 998 40 3 Image Chart
1995 6 7 00 19.1 117.9 998 40 3 Image Chart
1995 6 7 06 19.6 117.7 998 40 3 Image Chart
1995 6 7 12 20.1 117.8 998 35 3 Image Chart
1995 6 7 18 20.9 118.2 998 35 3 Image Chart
1995 6 8 00 21.9 118.9 998 35 3 Image Chart
1995 6 8 06 23.0 119.5 998 0 2 Image Chart
1995 6 8 12 24.0 121.5 998 0 2 Image Chart
1995 6 8 18 25.5 123.5 996 0 6 Image Chart
1995 6 9 00 26.5 125.5 996 0 6 Image Chart
1995 6 9 06 28.5 128.5 996 0 6 Image Chart
1995 6 9 12 29.5 131.5 996 0 6 Image Chart
1995 6 9 18 31.5 135.5 998 0 6 Image Chart
1995 6 10 00 33.0 141.0 998 0 6 Image Chart
1995 6 10 06 34.0 145.5 996 0 6 Image Chart
1995 6 10 12 34.0 151.0 996 0 6 Image Chart
1995 6 10 18 34.5 156.0 996 0 6 Image Chart
1995 6 11 00 35.0 159.0 994 0 6 Image Chart
1995 6 11 06 35.5 163.0 994 0 6 Image Chart
1995 6 11 12 36.0 166.0 994 0 6 Image Chart
1995 6 11 18 37.0 169.0 992 0 6 Image Chart
1995 6 12 00 38.5 173.5 992 0 6 Image Chart
1995 6 12 06 40.5 178.5 990 0 6 Image Chart
1995 6 12 12 43.0 181.0 988 0 6 Image Chart
Japan Meteorological Agency Best Track Data | Correction Date : 1996-01-19
< Typhoon 199501 1995 Season Typhoon 199503 >

Help